sensor_id;sensor_type;location;lat;lon;timestamp;pressure;altitude;pressure_sealevel;temperature;humidity
33422;BME280;19763;55.798;37.782;2022-09-03T00:01:21;100049.84;;;9.95;70.26
33422;BME280;19763;55.798;37.782;2022-09-03T00:03:56;100035.97;;;10.02;70.54
33422;BME280;19763;55.798;37.782;2022-09-03T00:06:31;100037.72;;;10.02;71.71
33422;BME280;19763;55.798;37.782;2022-09-03T00:09:08;100035.19;;;9.96;70.26
33422;BME280;19763;55.798;37.782;2022-09-03T00:12:13;100048.13;;;9.96;71.13
33422;BME280;19763;55.798;37.782;2022-09-03T00:17:14;100056.78;;;9.92;71.26
33422;BME280;19763;55.798;37.782;2022-09-03T00:19:57;100003.75;;;9.58;72.02
33422;BME280;19763;55.798;37.782;2022-09-03T00:22:32;100045.66;;;9.87;71.98
33422;BME280;19763;55.798;37.782;2022-09-03T00:25:02;100012.38;;;9.57;71.38
33422;BME280;19763;55.798;37.782;2022-09-03T00:27:31;100060.31;;;9.88;70.75
33422;BME280;19763;55.798;37.782;2022-09-03T00:30:07;100070.59;;;9.92;71.77
33422;BME280;19763;55.798;37.782;2022-09-03T00:32:36;100077.53;;;9.89;71.81
33422;BME280;19763;55.798;37.782;2022-09-03T00:35:06;100023.63;;;9.53;71.92
33422;BME280;19763;55.798;37.782;2022-09-03T00:37:33;100085.34;;;9.85;72.02
33422;BME280;19763;55.798;37.782;2022-09-03T00:39:59;100090.50;;;9.85;71.32
33422;BME280;19763;55.798;37.782;2022-09-03T00:42:46;100040.91;;;9.51;71.83
33422;BME280;19763;55.798;37.782;2022-09-03T00:45:50;100097.41;;;9.87;71.52
33422;BME280;19763;55.798;37.782;2022-09-03T00:48:25;100057.22;;;9.55;72.33
33422;BME280;19763;55.798;37.782;2022-09-03T00:53:36;100048.69;;;9.48;72.46
33422;BME280;19763;55.798;37.782;2022-09-03T00:58:58;100049.66;;;9.41;72.08
33422;BME280;19763;55.798;37.782;2022-09-03T01:04:44;100041.97;;;9.33;72.53
33422;BME280;19763;55.798;37.782;2022-09-03T01:07:21;100106.22;;;9.67;73.08
33422;BME280;19763;55.798;37.782;2022-09-03T01:09:58;100102.78;;;9.68;72.91
33422;BME280;19763;55.798;37.782;2022-09-03T01:15:19;100120.03;;;9.66;72.85
33422;BME280;19763;55.798;37.782;2022-09-03T01:20:57;100109.69;;;9.69;73.14
33422;BME280;19763;55.798;37.782;2022-09-03T01:26:28;100118.31;;;9.68;72.60
33422;BME280;19763;55.798;37.782;2022-09-03T01:29:03;100113.16;;;9.66;72.96
33422;BME280;19763;55.798;37.782;2022-09-03T01:34:37;100111.50;;;9.56;73.82
33422;BME280;19763;55.798;37.782;2022-09-03T01:37:24;100109.84;;;9.52;74.11
33422;BME280;19763;55.798;37.782;2022-09-03T01:40:13;100113.28;;;9.53;73.11
33422;BME280;19763;55.798;37.782;2022-09-03T01:50:53;100079.19;;;9.17;73.49
33422;BME280;19763;55.798;37.782;2022-09-03T01:53:53;100139.22;;;9.46;73.58
33422;BME280;19763;55.798;37.782;2022-09-03T01:58:43;100142.69;;;9.42;73.81
33422;BME280;19763;55.798;37.782;2022-09-03T02:01:31;100119.53;;;9.30;73.81
33422;BME280;19763;55.798;37.782;2022-09-03T02:03:58;100142.72;;;9.39;74.13
33422;BME280;19763;55.798;37.782;2022-09-03T02:06:27;100152.19;;;9.37;74.89
33422;BME280;19763;55.798;37.782;2022-09-03T02:08:53;100152.22;;;9.34;74.54
33422;BME280;19763;55.798;37.782;2022-09-03T02:11:19;100156.53;;;9.35;74.79
33422;BME280;19763;55.798;37.782;2022-09-03T02:13:49;100154.88;;;9.25;74.18
33422;BME280;19763;55.798;37.782;2022-09-03T02:16:20;100151.47;;;9.21;74.78
33422;BME280;19763;55.798;37.782;2022-09-03T02:19:10;100107.78;;;8.96;74.93
33422;BME280;19763;55.798;37.782;2022-09-03T02:21:38;100167.75;;;9.34;74.66
33422;BME280;19763;55.798;37.782;2022-09-03T02:24:07;100121.47;;;9.05;74.46
33422;BME280;19763;55.798;37.782;2022-09-03T02:26:34;100158.38;;;9.21;74.42
33422;BME280;19763;55.798;37.782;2022-09-03T02:29:00;100170.34;;;9.31;75.51
33422;BME280;19763;55.798;37.782;2022-09-03T02:31:27;100168.72;;;9.21;75.15
33422;BME280;19763;55.798;37.782;2022-09-03T02:33:55;100116.44;;;8.86;75.48
33422;BME280;19763;55.798;37.782;2022-09-03T02:36:25;100117.38;;;8.76;75.18
33422;BME280;19763;55.798;37.782;2022-09-03T02:38:52;100180.75;;;9.22;75.13
33422;BME280;19763;55.798;37.782;2022-09-03T02:41:18;100188.56;;;9.17;75.74
33422;BME280;19763;55.798;37.782;2022-09-03T02:44:03;100183.31;;;9.25;75.38
33422;BME280;19763;55.798;37.782;2022-09-03T02:47:09;100181.66;;;9.16;75.23
33422;BME280;19763;55.798;37.782;2022-09-03T02:49:35;100174.78;;;9.17;74.77
33422;BME280;19763;55.798;37.782;2022-09-03T02:52:09;100168.75;;;9.16;75.37
33422;BME280;19763;55.798;37.782;2022-09-03T02:54:37;100192.84;;;9.20;75.34
33422;BME280;19763;55.798;37.782;2022-09-03T02:57:07;100183.38;;;9.19;74.92
33422;BME280;19763;55.798;37.782;2022-09-03T02:59:34;100188.53;;;9.20;75.25
33422;BME280;19763;55.798;37.782;2022-09-03T03:02:00;100193.69;;;9.22;74.75
33422;BME280;19763;55.798;37.782;2022-09-03T03:04:27;100194.56;;;9.21;75.04
33422;BME280;19763;55.798;37.782;2022-09-03T03:06:52;100192.00;;;9.14;75.35
33422;BME280;19763;55.798;37.782;2022-09-03T03:09:18;100196.31;;;9.15;75.18
33422;BME280;19763;55.798;37.782;2022-09-03T03:11:44;100203.22;;;9.13;75.79
33422;BME280;19763;55.798;37.782;2022-09-03T03:14:09;100198.94;;;9.11;75.51
33422;BME280;19763;55.798;37.782;2022-09-03T03:16:35;100198.91;;;9.14;75.93
33422;BME280;19763;55.798;37.782;2022-09-03T03:19:01;100205.78;;;9.13;75.86
33422;BME280;19763;55.798;37.782;2022-09-03T03:21:27;100210.09;;;9.14;76.16
33422;BME280;19763;55.798;37.782;2022-09-03T03:23:52;100209.25;;;9.15;75.91
33422;BME280;19763;55.798;37.782;2022-09-03T03:26:19;100156.94;;;8.83;75.07
33422;BME280;19763;55.798;37.782;2022-09-03T03:28:48;100211.88;;;9.06;75.89
33422;BME280;19763;55.798;37.782;2022-09-03T03:31:17;100207.59;;;9.07;75.99
33422;BME280;19763;55.798;37.782;2022-09-03T03:33:43;100217.06;;;9.03;75.91
33422;BME280;19763;55.798;37.782;2022-09-03T03:36:13;100187.84;;;8.92;75.43
33422;BME280;19763;55.798;37.782;2022-09-03T03:38:40;100229.06;;;9.15;75.37
33422;BME280;19763;55.798;37.782;2022-09-03T03:41:26;100165.50;;;8.88;75.78
33422;BME280;19763;55.798;37.782;2022-09-03T03:43:53;100226.38;;;9.27;75.37
33422;BME280;19763;55.798;37.782;2022-09-03T03:46:19;100234.09;;;9.35;75.00
33422;BME280;19763;55.798;37.782;2022-09-03T03:48:47;100223.75;;;9.30;75.14
33422;BME280;19763;55.798;37.782;2022-09-03T03:51:13;100234.09;;;9.30;75.11
33422;BME280;19763;55.798;37.782;2022-09-03T03:53:39;100231.50;;;9.35;74.69
33422;BME280;19763;55.798;37.782;2022-09-03T03:56:07;100226.28;;;9.41;74.47
33422;BME280;19763;55.798;37.782;2022-09-03T03:58:34;100222.81;;;9.45;74.55
33422;BME280;19763;55.798;37.782;2022-09-03T04:01:05;100158.38;;;9.18;74.33
33422;BME280;19763;55.798;37.782;2022-09-03T04:03:32;100209.91;;;9.42;74.50
33422;BME280;19763;55.798;37.782;2022-09-03T04:05:59;100227.00;;;9.56;73.44
33422;BME280;19763;55.798;37.782;2022-09-03T04:08:28;100226.16;;;9.57;73.28
33422;BME280;19763;55.798;37.782;2022-09-03T04:10:59;100175.56;;;9.23;73.33
33422;BME280;19763;55.798;37.782;2022-09-03T04:13:37;100234.72;;;9.60;73.33
33422;BME280;19763;55.798;37.782;2022-09-03T04:18:33;100238.19;;;9.61;73.50
33422;BME280;19763;55.798;37.782;2022-09-03T04:21:04;100186.69;;;9.35;72.87
33422;BME280;19763;55.798;37.782;2022-09-03T04:23:32;100237.16;;;9.79;73.57
33422;BME280;19763;55.798;37.782;2022-09-03T04:25:58;100242.28;;;9.87;73.13
33422;BME280;19763;55.798;37.782;2022-09-03T04:28:24;100247.38;;;9.91;72.58
33422;BME280;19763;55.798;37.782;2022-09-03T04:30:51;100253.44;;;9.89;72.93
33422;BME280;19763;55.798;37.782;2022-09-03T04:33:16;100242.28;;;9.87;73.76
33422;BME280;19763;55.798;37.782;2022-09-03T04:35:42;100244.78;;;9.94;73.24
33422;BME280;19763;55.798;37.782;2022-09-03T04:38:09;100229.34;;;9.87;73.06
33422;BME280;19763;55.798;37.782;2022-09-03T04:40:35;100244.72;;;9.99;72.60
33422;BME280;19763;55.798;37.782;2022-09-03T04:43:02;100241.25;;;10.01;73.03
33422;BME280;19763;55.798;37.782;2022-09-03T04:45:28;100250.69;;;10.07;72.26
33422;BME280;19763;55.798;37.782;2022-09-03T04:48:01;100247.25;;;10.05;72.01
33422;BME280;19763;55.798;37.782;2022-09-03T04:50:28;100242.88;;;10.10;72.29
33422;BME280;19763;55.798;37.782;2022-09-03T04:52:58;100248.78;;;10.22;71.64
33422;BME280;19763;55.798;37.782;2022-09-03T04:55:24;100241.88;;;10.24;71.98
33422;BME280;19763;55.798;37.782;2022-09-03T04:57:50;100241.00;;;10.26;71.36
33422;BME280;19763;55.798;37.782;2022-09-03T05:00:16;100239.34;;;10.19;72.23
33422;BME280;19763;55.798;37.782;2022-09-03T05:02:43;100247.84;;;10.29;71.45
33422;BME280;19763;55.798;37.782;2022-09-03T05:05:13;100249.56;;;10.34;71.25
33422;BME280;19763;55.798;37.782;2022-09-03T05:07:39;100249.53;;;10.39;71.67
33422;BME280;19763;55.798;37.782;2022-09-03T05:10:07;100197.28;;;10.00;71.39
33422;BME280;19763;55.798;37.782;2022-09-03T05:12:34;100251.19;;;10.45;71.45
33422;BME280;19763;55.798;37.782;2022-09-03T05:14:59;100251.16;;;10.48;70.96
33422;BME280;19763;55.798;37.782;2022-09-03T05:17:28;100255.34;;;10.57;70.55
33422;BME280;19763;55.798;37.782;2022-09-03T05:19:53;100255.31;;;10.60;70.60
33422;BME280;19763;55.798;37.782;2022-09-03T05:22:19;100260.47;;;10.61;70.62
33422;BME280;19763;55.798;37.782;2022-09-03T05:24:48;100260.41;;;10.66;70.55
33422;BME280;19763;55.798;37.782;2022-09-03T05:27:15;100262.13;;;10.67;70.54
33422;BME280;19763;55.798;37.782;2022-09-03T05:29:43;100268.06;;;10.77;70.27
33422;BME280;19763;55.798;37.782;2022-09-03T05:32:10;100264.50;;;10.84;69.95
33422;BME280;19763;55.798;37.782;2022-09-03T05:34:37;100265.25;;;10.94;69.92
33422;BME280;19763;55.798;37.782;2022-09-03T05:37:03;100278.06;;;11.03;69.55
33422;BME280;19763;55.798;37.782;2022-09-03T05:39:28;100272.88;;;11.04;69.22
33422;BME280;19763;55.798;37.782;2022-09-03T05:41:54;100271.97;;;11.07;69.62
33422;BME280;19763;55.798;37.782;2022-09-03T05:44:19;100279.69;;;11.12;69.07
33422;BME280;19763;55.798;37.782;2022-09-03T05:46:49;100275.22;;;11.21;69.06
33422;BME280;19763;55.798;37.782;2022-09-03T05:49:16;100281.16;;;11.28;69.10
33422;BME280;19763;55.798;37.782;2022-09-03T05:51:42;100279.38;;;11.33;69.28
33422;BME280;19763;55.798;37.782;2022-09-03T05:54:08;100291.44;;;11.36;68.71
33422;BME280;19763;55.798;37.782;2022-09-03T05:56:36;100293.78;;;11.51;68.13
33422;BME280;19763;55.798;37.782;2022-09-03T05:59:05;100226.06;;;11.14;67.27
33422;BME280;19763;55.798;37.782;2022-09-03T06:01:38;100291.16;;;11.54;67.73
33422;BME280;19763;55.798;37.782;2022-09-03T06:04:06;100245.69;;;11.32;67.72
33422;BME280;19763;55.798;37.782;2022-09-03T06:06:34;100298.69;;;11.71;67.63
33422;BME280;19763;55.798;37.782;2022-09-03T06:09:06;100248.97;;;11.43;67.57
33422;BME280;19763;55.798;37.782;2022-09-03T06:11:33;100306.38;;;11.76;65.68
33422;BME280;19763;55.798;37.782;2022-09-03T06:14:00;100297.78;;;11.72;66.75
33422;BME280;19763;55.798;37.782;2022-09-03T06:16:29;100303.69;;;11.82;65.94
33422;BME280;19763;55.798;37.782;2022-09-03T06:18:56;100313.91;;;11.95;66.09
33422;BME280;19763;55.798;37.782;2022-09-03T06:21:22;100308.59;;;12.01;65.91
33422;BME280;19763;55.798;37.782;2022-09-03T06:23:52;100315.63;;;11.91;65.32
33422;BME280;19763;55.798;37.782;2022-09-03T06:26:19;100303.47;;;11.98;65.10
33422;BME280;19763;55.798;37.782;2022-09-03T06:28:45;100310.16;;;12.09;65.39
33422;BME280;19763;55.798;37.782;2022-09-03T06:31:15;100250.38;;;11.63;64.92
33422;BME280;19763;55.798;37.782;2022-09-03T06:33:42;100304.25;;;12.03;65.48
33422;BME280;19763;55.798;37.782;2022-09-03T06:36:14;100262.47;;;11.64;64.91
33422;BME280;19763;55.798;37.782;2022-09-03T06:38:41;100313.56;;;12.15;64.21
33422;BME280;19763;55.798;37.782;2022-09-03T06:41:17;100315.06;;;12.26;64.93
33422;BME280;19763;55.798;37.782;2022-09-03T06:43:48;100316.81;;;12.26;65.03
33422;BME280;19763;55.798;37.782;2022-09-03T06:46:15;100273.66;;;12.19;64.41
33422;BME280;19763;55.798;37.782;2022-09-03T06:48:42;100322.31;;;12.56;63.42
33422;BME280;19763;55.798;37.782;2022-09-03T06:51:18;100267.66;;;12.15;62.56
33422;BME280;19763;55.798;37.782;2022-09-03T06:53:50;100271.09;;;12.17;61.35
33422;BME280;19763;55.798;37.782;2022-09-03T06:56:21;100327.69;;;12.47;62.45
33422;BME280;19763;55.798;37.782;2022-09-03T06:58:56;100314.31;;;12.65;62.32
33422;BME280;19763;55.798;37.782;2022-09-03T07:01:27;100328.06;;;12.72;61.88
33422;BME280;19763;55.798;37.782;2022-09-03T07:03:57;100324.53;;;12.76;61.31
33422;BME280;19763;55.798;37.782;2022-09-03T07:06:31;100289.34;;;12.58;61.02
33422;BME280;19763;55.798;37.782;2022-09-03T07:08:58;100324.16;;;12.94;60.83
33422;BME280;19763;55.798;37.782;2022-09-03T07:11:29;100295.22;;;12.68;60.20
33422;BME280;19763;55.798;37.782;2022-09-03T07:13:56;100279.78;;;12.62;60.30
33422;BME280;19763;55.798;37.782;2022-09-03T07:16:27;100279.56;;;12.71;60.46
33422;BME280;19763;55.798;37.782;2022-09-03T07:18:54;100322.88;;;12.72;58.84
33422;BME280;19763;55.798;37.782;2022-09-03T07:21:28;100319.00;;;12.91;59.84
33422;BME280;19763;55.798;37.782;2022-09-03T07:23:55;100330.06;;;13.03;59.24
33422;BME280;19763;55.798;37.782;2022-09-03T07:26:26;100329.72;;;13.18;59.42
33422;BME280;19763;55.798;37.782;2022-09-03T07:28:52;100329.75;;;13.15;57.75
33422;BME280;19763;55.798;37.782;2022-09-03T07:31:21;100328.66;;;13.27;58.42
33422;BME280;19763;55.798;37.782;2022-09-03T07:34:00;100332.44;;;13.12;57.95
33422;BME280;19763;55.798;37.782;2022-09-03T07:36:29;100330.31;;;13.29;58.71
33422;BME280;19763;55.798;37.782;2022-09-03T07:38:57;100325.75;;;13.41;58.70
33422;BME280;19763;55.798;37.782;2022-09-03T07:41:23;100324.72;;;13.48;59.44
33422;BME280;19763;55.798;37.782;2022-09-03T07:43:50;100321.94;;;13.57;58.06
33422;BME280;19763;55.798;37.782;2022-09-03T07:46:18;100308.84;;;13.60;57.64
33422;BME280;19763;55.798;37.782;2022-09-03T07:48:57;100325.78;;;13.78;57.83
33422;BME280;19763;55.798;37.782;2022-09-03T07:51:25;100338.72;;;13.81;57.51
33422;BME280;19763;55.798;37.782;2022-09-03T07:53:52;100338.53;;;13.88;57.18
33422;BME280;19763;55.798;37.782;2022-09-03T07:56:19;100312.38;;;13.94;56.23
33422;BME280;19763;55.798;37.782;2022-09-03T07:58:44;100321.00;;;13.96;56.94
33422;BME280;19763;55.798;37.782;2022-09-03T08:01:17;100322.38;;;13.75;55.26
33422;BME280;19763;55.798;37.782;2022-09-03T08:03:47;100316.84;;;13.53;55.44
33422;BME280;19763;55.798;37.782;2022-09-03T08:06:15;100266.72;;;13.44;56.65
33422;BME280;19763;55.798;37.782;2022-09-03T08:08:41;100314.31;;;13.86;55.46
33422;BME280;19763;55.798;37.782;2022-09-03T08:11:12;100313.06;;;14.01;55.96
33422;BME280;19763;55.798;37.782;2022-09-03T08:13:39;100297.38;;;14.02;55.66
33422;BME280;19763;55.798;37.782;2022-09-03T08:16:06;100307.38;;;14.19;56.06
33422;BME280;19763;55.798;37.782;2022-09-03T08:18:35;100310.94;;;14.17;53.68
33422;BME280;19763;55.798;37.782;2022-09-03T08:21:15;100270.31;;;13.75;52.91
33422;BME280;19763;55.798;37.782;2022-09-03T08:23:49;100282.53;;;13.73;53.91
33422;BME280;19763;55.798;37.782;2022-09-03T08:26:16;100313.53;;;14.17;54.76
33422;BME280;19763;55.798;37.782;2022-09-03T08:28:43;100317.00;;;14.17;53.97
33422;BME280;19763;55.798;37.782;2022-09-03T08:31:20;100317.47;;;14.31;54.13
33422;BME280;19763;55.798;37.782;2022-09-03T08:33:48;100263.16;;;14.16;53.81
33422;BME280;19763;55.798;37.782;2022-09-03T08:36:22;100261.88;;;14.00;53.25
33422;BME280;19763;55.798;37.782;2022-09-03T08:38:50;100320.91;;;14.32;53.10
33422;BME280;19763;55.798;37.782;2022-09-03T08:41:23;100312.75;;;14.46;52.81
33422;BME280;19763;55.798;37.782;2022-09-03T08:52:20;100316.44;;;15.58;49.26
33422;BME280;19763;55.798;37.782;2022-09-03T08:54:49;100292.44;;;15.47;48.31
33422;BME280;19763;55.798;37.782;2022-09-03T08:57:19;100277.81;;;15.41;47.62
33422;BME280;19763;55.798;37.782;2022-09-03T08:59:47;100272.22;;;15.53;48.22
33422;BME280;19763;55.798;37.782;2022-09-03T09:05:41;100319.81;;;16.15;47.80
33422;BME280;19763;55.798;37.782;2022-09-03T09:08:42;100291.13;;;16.14;47.49
33422;BME280;19763;55.798;37.782;2022-09-03T09:11:28;100310.03;;;16.46;46.17
33422;BME280;19763;55.798;37.782;2022-09-03T09:14:03;100252.63;;;16.19;46.65
33422;BME280;19763;55.798;37.782;2022-09-03T09:16:37;100326.41;;;16.51;47.13
33422;BME280;19763;55.798;37.782;2022-09-03T09:19:23;100310.44;;;16.35;47.18
33422;BME280;19763;55.798;37.782;2022-09-03T09:22:04;100323.44;;;16.11;48.06
33422;BME280;19763;55.798;37.782;2022-09-03T09:24:40;100310.41;;;16.10;47.52
33422;BME280;19763;55.798;37.782;2022-09-03T09:27:07;100311.44;;;15.79;47.35
33422;BME280;19763;55.798;37.782;2022-09-03T09:29:38;100319.88;;;16.14;46.34
33422;BME280;19763;55.798;37.782;2022-09-03T09:32:06;100302.41;;;16.39;46.37
33422;BME280;19763;55.798;37.782;2022-09-03T09:34:37;100312.44;;;16.27;45.34
33422;BME280;19763;55.798;37.782;2022-09-03T09:37:08;100304.31;;;16.34;44.31
33422;BME280;19763;55.798;37.782;2022-09-03T09:39:34;100295.88;;;16.28;44.11
33422;BME280;19763;55.798;37.782;2022-09-03T09:42:10;100297.41;;;16.33;45.08
33422;BME280;19763;55.798;37.782;2022-09-03T09:44:38;100302.53;;;16.36;44.67
33422;BME280;19763;55.798;37.782;2022-09-03T09:49:42;100254.66;;;15.57;44.67
33422;BME280;19763;55.798;37.782;2022-09-03T09:52:15;100304.41;;;15.81;44.63
33422;BME280;19763;55.798;37.782;2022-09-03T09:54:43;100265.59;;;15.42;44.77
33422;BME280;19763;55.798;37.782;2022-09-03T09:57:20;100312.56;;;15.70;44.25
33422;BME280;19763;55.798;37.782;2022-09-03T09:59:47;100290.44;;;15.55;46.00
33422;BME280;19763;55.798;37.782;2022-09-03T10:02:25;100253.75;;;15.31;44.63
33422;BME280;19763;55.798;37.782;2022-09-03T10:05:01;100285.16;;;15.57;43.37
33422;BME280;19763;55.798;37.782;2022-09-03T10:07:36;100293.09;;;15.80;43.83
33422;BME280;19763;55.798;37.782;2022-09-03T10:15:27;100291.53;;;16.01;43.81
33422;BME280;19763;55.798;37.782;2022-09-03T10:20:25;100248.88;;;16.01;42.16
33422;BME280;19763;55.798;37.782;2022-09-03T10:28:25;100291.00;;;16.17;41.89
33422;BME280;19763;55.798;37.782;2022-09-03T10:47:34;100290.59;;;15.22;42.89
33422;BME280;19763;55.798;37.782;2022-09-03T10:55:01;100246.50;;;14.84;42.97
33422;BME280;19763;55.798;37.782;2022-09-03T11:00:24;100290.97;;;15.10;43.27
33422;BME280;19763;55.798;37.782;2022-09-03T11:05:41;100286.19;;;14.94;42.93
33422;BME280;19763;55.798;37.782;2022-09-03T11:08:23;100302.13;;;15.15;43.31
33422;BME280;19763;55.798;37.782;2022-09-03T11:11:08;100258.84;;;14.79;43.73
33422;BME280;19763;55.798;37.782;2022-09-03T11:13:45;100239.59;;;14.82;44.20
33422;BME280;19763;55.798;37.782;2022-09-03T11:16:31;100236.38;;;15.04;44.33
33422;BME280;19763;55.798;37.782;2022-09-03T11:19:05;100283.66;;;15.49;43.83
33422;BME280;19763;55.798;37.782;2022-09-03T11:21:33;100230.63;;;15.21;43.04
33422;BME280;19763;55.798;37.782;2022-09-03T11:24:05;100277.22;;;15.60;42.59
33422;BME280;19763;55.798;37.782;2022-09-03T11:26:33;100277.31;;;15.57;43.34
33422;BME280;19763;55.798;37.782;2022-09-03T11:32:20;100246.84;;;15.84;43.18
33422;BME280;19763;55.798;37.782;2022-09-03T11:34:50;100256.44;;;16.09;43.27
33422;BME280;19763;55.798;37.782;2022-09-03T11:42:34;100216.88;;;15.94;42.99
33422;BME280;19763;55.798;37.782;2022-09-03T11:47:52;100263.06;;;16.19;43.83
33422;BME280;19763;55.798;37.782;2022-09-03T11:52:46;100264.66;;;15.98;43.67
33422;BME280;19763;55.798;37.782;2022-09-03T11:55:23;100225.59;;;15.68;43.69
33422;BME280;19763;55.798;37.782;2022-09-03T11:57:49;100264.03;;;15.91;43.95
33422;BME280;19763;55.798;37.782;2022-09-03T12:00:17;100218.94;;;15.59;44.77
33422;BME280;19763;55.798;37.782;2022-09-03T12:02:49;100266.41;;;15.97;44.54
33422;BME280;19763;55.798;37.782;2022-09-03T12:14:11;100264.84;;;15.92;44.36
33422;BME280;19763;55.798;37.782;2022-09-03T12:19:49;100252.72;;;15.91;44.21
33422;BME280;19763;55.798;37.782;2022-09-03T12:22:18;100254.09;;;16.01;44.81
33422;BME280;19763;55.798;37.782;2022-09-03T12:24:44;100249.94;;;15.95;44.70
33422;BME280;19763;55.798;37.782;2022-09-03T12:27:21;100235.78;;;15.49;44.64
33422;BME280;19763;55.798;37.782;2022-09-03T12:29:59;100271.69;;;15.69;45.07
33422;BME280;19763;55.798;37.782;2022-09-03T12:32:33;100249.66;;;15.51;45.18
33422;BME280;19763;55.798;37.782;2022-09-03T12:35:13;100241.38;;;15.65;45.88
33422;BME280;19763;55.798;37.782;2022-09-03T12:37:41;100239.56;;;15.67;45.17
33422;BME280;19763;55.798;37.782;2022-09-03T12:40:27;100192.56;;;15.40;45.07
33422;BME280;19763;55.798;37.782;2022-09-03T12:42:53;100231.41;;;15.76;44.73
33422;BME280;19763;55.798;37.782;2022-09-03T12:45:23;100192.81;;;15.59;44.69
33422;BME280;19763;55.798;37.782;2022-09-03T12:47:50;100235.75;;;16.02;45.29
33422;BME280;19763;55.798;37.782;2022-09-03T12:50:19;100242.13;;;15.95;44.95
33422;BME280;19763;55.798;37.782;2022-09-03T12:52:55;100192.50;;;15.68;45.00
33422;BME280;19763;55.798;37.782;2022-09-03T12:58:09;100213.69;;;15.86;44.38
33422;BME280;19763;55.798;37.782;2022-09-03T13:00:44;100186.31;;;15.71;44.54
33422;BME280;19763;55.798;37.782;2022-09-03T13:03:20;100185.38;;;15.74;43.59
33422;BME280;19763;55.798;37.782;2022-09-03T13:05:57;100190.28;;;15.83;43.58
33422;BME280;19763;55.798;37.782;2022-09-03T13:08:28;100219.72;;;15.88;42.86
33422;BME280;19763;55.798;37.782;2022-09-03T13:10:57;100240.44;;;15.93;43.63
33422;BME280;19763;55.798;37.782;2022-09-03T13:13:28;100212.19;;;16.04;44.04
33422;BME280;19763;55.798;37.782;2022-09-03T13:29:37;100209.63;;;16.02;44.11
33422;BME280;19763;55.798;37.782;2022-09-03T13:35:03;100209.41;;;16.09;42.57
33422;BME280;19763;55.798;37.782;2022-09-03T13:37:40;100164.88;;;15.88;43.49
33422;BME280;19763;55.798;37.782;2022-09-03T13:42:57;100200.78;;;16.07;44.39
33422;BME280;19763;55.798;37.782;2022-09-03T13:48:27;100147.31;;;15.66;43.27
33422;BME280;19763;55.798;37.782;2022-09-03T13:51:18;100150.78;;;15.67;43.63
33422;BME280;19763;55.798;37.782;2022-09-03T14:02:32;100192.47;;;15.95;44.02
33422;BME280;19763;55.798;37.782;2022-09-03T14:10:38;100183.09;;;15.90;44.23
33422;BME280;19763;55.798;37.782;2022-09-03T14:13:18;100179.66;;;15.89;43.78
33422;BME280;19763;55.798;37.782;2022-09-03T14:15:51;100182.34;;;15.86;44.03
33422;BME280;19763;55.798;37.782;2022-09-03T14:21:26;100168.38;;;15.87;44.06
33422;BME280;19763;55.798;37.782;2022-09-03T14:24:07;100166.78;;;15.83;43.84
33422;BME280;19763;55.798;37.782;2022-09-03T14:26:36;100166.72;;;15.84;45.12
33422;BME280;19763;55.798;37.782;2022-09-03T14:29:13;100140.28;;;15.68;45.90
33422;BME280;19763;55.798;37.782;2022-09-03T14:37:30;100117.09;;;15.34;45.29
33422;BME280;19763;55.798;37.782;2022-09-03T14:54:04;100163.44;;;15.52;46.12
33422;BME280;19763;55.798;37.782;2022-09-03T14:56:48;100165.91;;;15.57;46.46
33422;BME280;19763;55.798;37.782;2022-09-03T15:04:54;100159.66;;;15.61;47.77
33422;BME280;19763;55.798;37.782;2022-09-03T15:07:51;100111.16;;;15.29;46.75
33422;BME280;19763;55.798;37.782;2022-09-03T15:12:52;100166.13;;;15.51;46.53
33422;BME280;19763;55.798;37.782;2022-09-03T15:15:23;100153.53;;;15.37;46.57
33422;BME280;19763;55.798;37.782;2022-09-03T15:17:53;100146.53;;;15.39;46.22
33422;BME280;19763;55.798;37.782;2022-09-03T15:36:50;100147.31;;;15.41;46.05
33422;BME280;19763;55.798;37.782;2022-09-03T15:42:05;100126.69;;;15.33;47.33
33422;BME280;19763;55.798;37.782;2022-09-03T15:44:41;100071.09;;;15.05;46.13
33422;BME280;19763;55.798;37.782;2022-09-03T15:49:54;100137.03;;;15.36;46.86
33422;BME280;19763;55.798;37.782;2022-09-03T15:55:33;100139.25;;;15.22;47.39
33422;BME280;19763;55.798;37.782;2022-09-03T16:00:48;100148.19;;;15.15;48.78
33422;BME280;19763;55.798;37.782;2022-09-03T16:03:20;100090.53;;;14.69;48.82
33422;BME280;19763;55.798;37.782;2022-09-03T16:06:04;100093.75;;;14.77;48.37
33422;BME280;19763;55.798;37.782;2022-09-03T16:08:53;100145.81;;;15.07;48.92
33422;BME280;19763;55.798;37.782;2022-09-03T16:11:39;100148.41;;;15.07;48.51
33422;BME280;19763;55.798;37.782;2022-09-03T16:14:20;100099.91;;;14.75;48.94
33422;BME280;19763;55.798;37.782;2022-09-03T16:22:26;100149.53;;;15.00;50.02
33422;BME280;19763;55.798;37.782;2022-09-03T16:25:06;100144.63;;;14.89;50.04
33422;BME280;19763;55.798;37.782;2022-09-03T16:30:00;100152.75;;;14.80;50.36
33422;BME280;19763;55.798;37.782;2022-09-03T16:35:41;100168.78;;;14.67;50.38
33422;BME280;19763;55.798;37.782;2022-09-03T16:38:51;100153.25;;;14.64;50.78
33422;BME280;19763;55.798;37.782;2022-09-03T16:40:55;100156.84;;;14.59;51.45
33422;BME280;19763;55.798;37.782;2022-09-03T16:46:21;100157.94;;;14.52;51.43
33422;BME280;19763;55.798;37.782;2022-09-03T16:51:34;100166.75;;;14.47;51.76
33422;BME280;19763;55.798;37.782;2022-09-03T16:54:17;100173.53;;;14.53;51.62
33422;BME280;19763;55.798;37.782;2022-09-03T17:02:34;100167.53;;;14.51;51.49